Check out our new PWSWeather beta!
PWSweather.com
Personal Weather Stations
Station Observations
IHTIMAN1
Neighbourhood 1, IhtimanBG 2050

Neighbourhood 1IhtimanBG 2050

Lat: 42.436852, Lon: 23.817921

Elevation: 2066

Station Type: Oregon Scientific WMR968

http://ihtiman-meteo.com

High Low Average
Temperature 48.2°F9.0°C 22.5°F-5.3°C 34.5°F1.4°C
Dew Point 39.2°F4.0°C 20.0°F-6.7°C 28.5°F-1.9°C
Winds 4.6 mph 7.4 kmh Calm Calm 1.0 mph S1.6 kmh S
Wind Gusts 5.8 mph9.3 kmh -- 1.0 mph1.6 kmh
Humidity 100% 48% 81%
Pressure 30.15 in1021.0 mb 29.94 in1013.9 mb -
Precipitation 0.05 in1.3 mm - -
Hour Temp Dew Point Humidity Winds Wind Gusts Pressure Precip Precip Rate Daily Precip Total
12:00 AM 29.3°F-1.5°C 25.1°F-3.8°C 84% Calm Calm -- 30.15 in1021.0 mb - 0.00 in0.0 mm 0.00 in0.0 mm
12:10 AM 29.0°F-1.7°C 24.8°F-4.0°C 84% Calm Calm 3.5 mph5.6 kmh 30.15 in1021.0 mb - 0.00 in0.0 mm 0.00 in0.0 mm
12:20 AM 27.9°F-2.3°C 23.7°F-4.6°C 84% Calm Calm -- 30.15 in1021.0 mb - 0.00 in0.0 mm 0.00 in0.0 mm
12:30 AM 27.5°F-2.5°C 23.3°F-4.8°C 84% Calm Calm -- 30.15 in1021.0 mb - 0.00 in0.0 mm 0.00 in0.0 mm
12:40 AM 27.9°F-2.3°C 23.9°F-4.5°C 85% Calm Calm -- 30.15 in1021.0 mb - 0.00 in0.0 mm 0.00 in0.0 mm
12:50 AM 27.7°F-2.4°C 24.0°F-4.4°C 86% Calm Calm -- 30.15 in1021.0 mb - 0.00 in0.0 mm 0.00 in0.0 mm
01:00 AM 27.5°F-2.5°C 23.9°F-4.5°C 86% Calm Calm 3.5 mph5.6 kmh 30.15 in1021.0 mb - 0.00 in0.0 mm 0.00 in0.0 mm
01:10 AM 27.0°F-2.8°C 23.1°F-4.9°C 85% Calm Calm -- 30.15 in1021.0 mb - 0.00 in0.0 mm 0.00 in0.0 mm
01:20 AM 27.0°F-2.8°C 23.3°F-4.8°C 86% Calm Calm -- 30.15 in1021.0 mb - 0.00 in0.0 mm 0.00 in0.0 mm
01:30 AM 27.0°F-2.8°C 23.3°F-4.8°C 86% Calm Calm -- 30.15 in1021.0 mb - 0.00 in0.0 mm 0.00 in0.0 mm
01:40 AM 27.1°F-2.7°C 23.5°F-4.7°C 86% Calm Calm -- 30.15 in1021.0 mb - 0.00 in0.0 mm 0.00 in0.0 mm
01:50 AM 27.0°F-2.8°C 23.3°F-4.8°C 86% Calm Calm -- 30.15 in1021.0 mb - 0.00 in0.0 mm 0.00 in0.0 mm
02:00 AM 27.3°F-2.6°C 24.0°F-4.4°C 87% 3.5 mph NE5.6 kmh NE 4.6 mph7.4 kmh 30.12 in1020.0 mb - 0.00 in0.0 mm 0.00 in0.0 mm
02:10 AM 27.2°F-2.7°C 23.9°F-4.5°C 87% Calm Calm -- 30.12 in1020.0 mb - 0.00 in0.0 mm 0.00 in0.0 mm
02:20 AM 27.1°F-2.7°C 23.8°F-4.6°C 87% Calm Calm -- 30.12 in1020.0 mb - 0.00 in0.0 mm 0.00 in0.0 mm
02:30 AM 26.6°F-3.0°C 23.0°F-5.0°C 86% Calm Calm -- 30.12 in1020.0 mb - 0.00 in0.0 mm 0.00 in0.0 mm
02:40 AM 25.3°F-3.7°C 21.4°F-5.9°C 85% Calm Calm 4.6 mph7.4 kmh 30.12 in1020.0 mb - 0.00 in0.0 mm 0.00 in0.0 mm
02:50 AM 25.0°F-3.9°C 21.1°F-6.1°C 85% Calm Calm 2.3 mph3.7 kmh 30.12 in1020.0 mb - 0.00 in0.0 mm 0.00 in0.0 mm
03:00 AM 25.2°F-3.8°C 21.6°F-5.8°C 86% Calm Calm -- 30.12 in1020.0 mb - 0.00 in0.0 mm 0.00 in0.0 mm
03:10 AM 25.2°F-3.8°C 21.8°F-5.7°C 87% Calm Calm 3.5 mph5.6 kmh 30.12 in1020.0 mb - 0.00 in0.0 mm 0.00 in0.0 mm
03:20 AM 25.0°F-3.9°C 21.7°F-5.7°C 87% Calm Calm 2.3 mph3.7 kmh 30.12 in1020.0 mb - 0.00 in0.0 mm 0.00 in0.0 mm
03:30 AM 24.8°F-4.0°C 21.8°F-5.7°C 88% Calm Calm -- 30.12 in1020.0 mb - 0.00 in0.0 mm 0.00 in0.0 mm
03:40 AM 25.2°F-3.8°C 22.4°F-5.3°C 89% Calm Calm -- 30.12 in1020.0 mb - 0.00 in0.0 mm 0.00 in0.0 mm
03:50 AM 25.0°F-3.9°C 22.2°F-5.4°C 89% Calm Calm -- 30.12 in1020.0 mb - 0.00 in0.0 mm 0.00 in0.0 mm
04:00 AM 25.3°F-3.7°C 22.8°F-5.1°C 90% Calm Calm -- 30.12 in1020.0 mb - 0.00 in0.0 mm 0.00 in0.0 mm
04:10 AM 25.5°F-3.6°C 23.0°F-5.0°C 90% Calm Calm -- 30.12 in1020.0 mb - 0.00 in0.0 mm 0.00 in0.0 mm
04:20 AM 25.5°F-3.6°C 23.0°F-5.0°C 90% Calm Calm -- 30.09 in1019.0 mb - 0.00 in0.0 mm 0.00 in0.0 mm
04:30 AM 24.7°F-4.1°C 22.2°F-5.4°C 90% Calm Calm -- 30.09 in1019.0 mb - 0.00 in0.0 mm 0.00 in0.0 mm
04:40 AM 24.4°F-4.2°C 21.9°F-5.6°C 90% Calm Calm -- 30.09 in1019.0 mb - 0.00 in0.0 mm 0.00 in0.0 mm
04:50 AM 23.5°F-4.7°C 20.8°F-6.2°C 89% Calm Calm -- 30.09 in1019.0 mb - 0.00 in0.0 mm 0.00 in0.0 mm
05:00 AM 23.5°F-4.7°C 20.8°F-6.2°C 89% Calm Calm -- 30.09 in1019.0 mb - 0.00 in0.0 mm 0.00 in0.0 mm
05:10 AM 23.7°F-4.6°C 21.2°F-6.0°C 90% Calm Calm -- 30.09 in1019.0 mb - 0.00 in0.0 mm 0.00 in0.0 mm
05:20 AM 23.7°F-4.6°C 21.2°F-6.0°C 90% Calm Calm -- 30.09 in1019.0 mb - 0.00 in0.0 mm 0.00 in0.0 mm
05:30 AM 24.1°F-4.4°C 21.6°F-5.8°C 90% Calm Calm -- 30.09 in1019.0 mb - 0.00 in0.0 mm 0.00 in0.0 mm
05:40 AM 24.4°F-4.2°C 22.2°F-5.4°C 91% Calm Calm -- 30.09 in1019.0 mb - 0.00 in0.0 mm 0.00 in0.0 mm
05:50 AM 24.4°F-4.2°C 22.2°F-5.4°C 91% 1.2 mph NNE1.9 kmh NNE -- 30.09 in1019.0 mb - 0.00 in0.0 mm 0.00 in0.0 mm
06:00 AM 24.2°F-4.3°C 21.9°F-5.6°C 91% Calm Calm -- 30.09 in1019.0 mb - 0.00 in0.0 mm 0.00 in0.0 mm
06:10 AM 23.8°F-4.6°C 21.3°F-5.9°C 90% Calm Calm -- 30.09 in1019.0 mb - 0.00 in0.0 mm 0.00 in0.0 mm
06:20 AM 23.0°F-5.0°C 20.5°F-6.4°C 90% Calm Calm -- 30.09 in1019.0 mb - 0.00 in0.0 mm 0.00 in0.0 mm
06:30 AM 22.8°F-5.1°C 20.3°F-6.5°C 90% Calm Calm -- 30.09 in1019.0 mb - 0.00 in0.0 mm 0.00 in0.0 mm
06:40 AM 22.6°F-5.2°C 20.1°F-6.6°C 90% Calm Calm -- 30.09 in1019.0 mb - 0.00 in0.0 mm 0.00 in0.0 mm
06:50 AM 22.5°F-5.3°C 20.0°F-6.7°C 90% Calm Calm -- 30.09 in1019.0 mb - 0.00 in0.0 mm 0.00 in0.0 mm
07:00 AM 22.9°F-5.1°C 20.5°F-6.4°C 90% Calm Calm 3.5 mph5.6 kmh 30.09 in1019.0 mb - 0.00 in0.0 mm 0.00 in0.0 mm
07:10 AM 22.6°F-5.2°C 20.4°F-6.4°C 91% 3.5 mph S5.6 kmh S 3.5 mph5.6 kmh 30.09 in1019.0 mb - 0.00 in0.0 mm 0.00 in0.0 mm
07:20 AM 22.8°F-5.1°C 20.6°F-6.3°C 91% 2.3 mph S3.7 kmh S 2.3 mph3.7 kmh 30.09 in1019.0 mb - 0.00 in0.0 mm 0.00 in0.0 mm
07:30 AM 23.2°F-4.9°C 20.9°F-6.2°C 91% Calm Calm -- 30.09 in1019.0 mb - 0.00 in0.0 mm 0.00 in0.0 mm
07:40 AM 23.5°F-4.7°C 21.3°F-5.9°C 91% Calm Calm -- 30.09 in1019.0 mb - 0.00 in0.0 mm 0.00 in0.0 mm
07:50 AM 23.9°F-4.5°C 21.7°F-5.7°C 91% Calm Calm -- 30.09 in1019.0 mb - 0.00 in0.0 mm 0.00 in0.0 mm
08:00 AM 24.4°F-4.2°C 22.2°F-5.4°C 91% Calm Calm -- 30.09 in1019.0 mb - 0.00 in0.0 mm 0.00 in0.0 mm
08:10 AM 24.6°F-4.1°C 22.4°F-5.3°C 91% Calm Calm -- 30.09 in1019.0 mb - 0.00 in0.0 mm 0.00 in0.0 mm
08:20 AM 25.2°F-3.8°C 23.0°F-5.0°C 91% Calm Calm -- 30.09 in1019.0 mb - 0.00 in0.0 mm 0.00 in0.0 mm
08:30 AM 25.8°F-3.4°C 23.6°F-4.7°C 91% 3.5 mph WSW5.6 kmh WSW 3.5 mph5.6 kmh 30.09 in1019.0 mb - 0.00 in0.0 mm 0.00 in0.0 mm
08:40 AM 26.7°F-2.9°C 24.2°F-4.3°C 90% Calm Calm -- 30.09 in1019.0 mb - 0.00 in0.0 mm 0.00 in0.0 mm
08:50 AM 28.2°F-2.1°C 25.7°F-3.5°C 90% Calm Calm -- 30.09 in1019.0 mb - 0.00 in0.0 mm 0.00 in0.0 mm
09:00 AM 28.3°F-2.1°C 25.2°F-3.8°C 88% Calm Calm -- 30.09 in1019.0 mb - 0.00 in0.0 mm 0.00 in0.0 mm
09:10 AM 28.6°F-1.9°C 24.9°F-3.9°C 86% Calm Calm -- 30.09 in1019.0 mb - 0.00 in0.0 mm 0.00 in0.0 mm
09:20 AM 28.6°F-1.9°C 24.6°F-4.1°C 85% Calm Calm -- 30.06 in1017.9 mb - 0.00 in0.0 mm 0.00 in0.0 mm
09:30 AM 28.8°F-1.8°C 24.9°F-3.9°C 85% 1.2 mph WSW1.9 kmh WSW -- 30.06 in1017.9 mb - 0.00 in0.0 mm 0.00 in0.0 mm
09:40 AM 29.1°F-1.6°C 25.2°F-3.8°C 85% Calm Calm -- 30.06 in1017.9 mb - 0.00 in0.0 mm 0.00 in0.0 mm
09:50 AM 29.5°F-1.4°C 25.2°F-3.8°C 84% Calm Calm -- 30.06 in1017.9 mb - 0.00 in0.0 mm 0.00 in0.0 mm
10:00 AM 30.0°F-1.1°C 25.8°F-3.4°C 84% Calm Calm -- 30.06 in1017.9 mb - 0.00 in0.0 mm 0.00 in0.0 mm
10:10 AM 30.7°F-0.7°C 26.5°F-3.1°C 84% Calm Calm -- 30.06 in1017.9 mb - 0.00 in0.0 mm 0.00 in0.0 mm
10:20 AM 31.1°F-0.5°C 26.8°F-2.9°C 84% Calm Calm -- 30.03 in1016.9 mb - 0.00 in0.0 mm 0.00 in0.0 mm
10:30 AM 32.0°F0.0°C 27.4°F-2.6°C 83% 1.2 mph WSW1.9 kmh WSW 3.5 mph5.6 kmh 30.03 in1016.9 mb - 0.00 in0.0 mm 0.00 in0.0 mm
10:40 AM 32.8°F0.4°C 27.9°F-2.3°C 82% Calm Calm 3.5 mph5.6 kmh 30.03 in1016.9 mb - 0.00 in0.0 mm 0.00 in0.0 mm
10:50 AM 33.6°F0.9°C 28.1°F-2.2°C 80% Calm Calm -- 30.03 in1016.9 mb - 0.00 in0.0 mm 0.00 in0.0 mm
11:00 AM 35.1°F1.7°C 28.9°F-1.7°C 78% Calm Calm -- 30.03 in1016.9 mb - 0.00 in0.0 mm 0.00 in0.0 mm
11:10 AM 35.1°F1.7°C 28.0°F-2.2°C 75% Calm Calm 3.5 mph5.6 kmh 30.03 in1016.9 mb - 0.00 in0.0 mm 0.00 in0.0 mm
11:20 AM 35.8°F2.1°C 28.6°F-1.9°C 75% Calm Calm -- 30.03 in1016.9 mb - 0.00 in0.0 mm 0.00 in0.0 mm
11:30 AM 37.1°F2.8°C 28.9°F-1.7°C 72% Calm Calm -- 30.03 in1016.9 mb - 0.00 in0.0 mm 0.00 in0.0 mm
11:40 AM 37.4°F3.0°C 28.2°F-2.1°C 69% Calm Calm -- 30.03 in1016.9 mb - 0.00 in0.0 mm 0.00 in0.0 mm
11:50 AM 40.2°F4.6°C 31.2°F-0.4°C 70% 2.3 mph NW3.7 kmh NW 4.6 mph7.4 kmh 30.03 in1016.9 mb - 0.00 in0.0 mm 0.00 in0.0 mm
12:00 PM 43.6°F6.4°C 32.2°F0.1°C 64% 1.2 mph WNW1.9 kmh WNW 2.3 mph3.7 kmh 30.03 in1016.9 mb - 0.00 in0.0 mm 0.00 in0.0 mm
12:10 PM 44.0°F6.7°C 30.2°F-1.0°C 58% Calm Calm 4.6 mph7.4 kmh 30.03 in1016.9 mb - 0.00 in0.0 mm 0.00 in0.0 mm
12:20 PM 43.1°F6.2°C 29.4°F-1.4°C 58% 2.3 mph SW3.7 kmh SW 3.5 mph5.6 kmh 30.03 in1016.9 mb - 0.00 in0.0 mm 0.00 in0.0 mm
12:30 PM 43.8°F6.6°C 30.0°F-1.1°C 58% Calm Calm 3.5 mph5.6 kmh 30.03 in1016.9 mb - 0.00 in0.0 mm 0.00 in0.0 mm
12:40 PM 44.4°F6.9°C 29.2°F-1.6°C 55% 1.2 mph WSW1.9 kmh WSW 2.3 mph3.7 kmh 30.03 in1016.9 mb - 0.00 in0.0 mm 0.00 in0.0 mm
12:50 PM 44.9°F7.2°C 29.2°F-1.6°C 54% 3.5 mph SE5.6 kmh SE 4.6 mph7.4 kmh 30.00 in1015.9 mb - 0.00 in0.0 mm 0.00 in0.0 mm
01:00 PM 45.1°F7.3°C 29.0°F-1.7°C 53% 3.5 mph S5.6 kmh S 5.8 mph9.3 kmh 30.00 in1015.9 mb - 0.00 in0.0 mm 0.00 in0.0 mm
01:10 PM 44.9°F7.2°C 28.8°F-1.8°C 53% Calm Calm -- 30.00 in1015.9 mb - 0.00 in0.0 mm 0.00 in0.0 mm
01:20 PM 45.7°F7.6°C 30.4°F-0.9°C 55% Calm Calm 3.5 mph5.6 kmh 30.00 in1015.9 mb - 0.00 in0.0 mm 0.00 in0.0 mm
01:30 PM 45.9°F7.7°C 28.8°F-1.8°C 51% 2.3 mph ENE3.7 kmh ENE 3.5 mph5.6 kmh 29.97 in1014.9 mb - 0.00 in0.0 mm 0.00 in0.0 mm
01:40 PM 48.0°F8.9°C 30.3°F-0.9°C 50% 4.6 mph SE7.4 kmh SE 5.8 mph9.3 kmh 29.97 in1014.9 mb - 0.00 in0.0 mm 0.00 in0.0 mm
02:00 PM 48.2°F9.0°C 29.4°F-1.4°C 48% 2.3 mph S3.7 kmh S 3.5 mph5.6 kmh 29.97 in1014.9 mb - 0.00 in0.0 mm 0.00 in0.0 mm
02:10 PM 46.2°F7.9°C 28.1°F-2.2°C 49% 2.3 mph SW3.7 kmh SW 2.3 mph3.7 kmh 29.97 in1014.9 mb - 0.00 in0.0 mm 0.00 in0.0 mm
02:20 PM 45.0°F7.2°C 27.4°F-2.6°C 50% 3.5 mph S5.6 kmh S 3.5 mph5.6 kmh 29.97 in1014.9 mb - 0.00 in0.0 mm 0.00 in0.0 mm
02:30 PM 44.8°F7.1°C 27.7°F-2.4°C 51% 2.3 mph ENE3.7 kmh ENE 3.5 mph5.6 kmh 29.97 in1014.9 mb - 0.00 in0.0 mm 0.00 in0.0 mm
02:40 PM 44.4°F6.9°C 28.8°F-1.8°C 54% 3.5 mph S5.6 kmh S 5.8 mph9.3 kmh 29.97 in1014.9 mb - 0.00 in0.0 mm 0.00 in0.0 mm
02:50 PM 44.1°F6.7°C 28.5°F-1.9°C 54% 3.5 mph SE5.6 kmh SE 3.5 mph5.6 kmh 29.97 in1014.9 mb - 0.00 in0.0 mm 0.00 in0.0 mm
03:00 PM 43.9°F6.6°C 28.7°F-1.8°C 55% Calm Calm -- 29.97 in1014.9 mb - 0.00 in0.0 mm 0.00 in0.0 mm
03:10 PM 43.7°F6.5°C 29.0°F-1.7°C 56% 3.5 mph S5.6 kmh S 5.8 mph9.3 kmh 29.97 in1014.9 mb - 0.00 in0.0 mm 0.00 in0.0 mm
03:20 PM 43.7°F6.5°C 29.0°F-1.7°C 56% Calm Calm 2.3 mph3.7 kmh 29.97 in1014.9 mb - 0.00 in0.0 mm 0.00 in0.0 mm
03:30 PM 43.5°F6.4°C 29.7°F-1.3°C 58% 2.3 mph SE3.7 kmh SE 3.5 mph5.6 kmh 29.97 in1014.9 mb - 0.00 in0.0 mm 0.00 in0.0 mm
03:40 PM 43.6°F6.4°C 29.8°F-1.2°C 58% 3.5 mph SE5.6 kmh SE 5.8 mph9.3 kmh 29.97 in1014.9 mb - 0.00 in0.0 mm 0.00 in0.0 mm
03:50 PM 43.7°F6.5°C 29.9°F-1.2°C 58% Calm Calm -- 29.94 in1013.9 mb - 0.00 in0.0 mm 0.00 in0.0 mm
04:00 PM 43.9°F6.6°C 30.0°F-1.1°C 58% Calm Calm -- 29.97 in1014.9 mb - 0.00 in0.0 mm 0.00 in0.0 mm
04:10 PM 44.1°F6.7°C 30.2°F-1.0°C 58% Calm Calm -- 29.97 in1014.9 mb - 0.00 in0.0 mm 0.00 in0.0 mm
04:20 PM 44.2°F6.8°C 30.3°F-0.9°C 58% 2.3 mph SSE3.7 kmh SSE 3.5 mph5.6 kmh 29.97 in1014.9 mb - 0.00 in0.0 mm 0.00 in0.0 mm
04:30 PM 44.1°F6.7°C 31.1°F-0.5°C 60% 2.3 mph SSE3.7 kmh SSE 3.5 mph5.6 kmh 29.97 in1014.9 mb - 0.00 in0.0 mm 0.00 in0.0 mm
04:40 PM 44.1°F6.7°C 31.1°F-0.5°C 60% 2.3 mph S3.7 kmh S 3.5 mph5.6 kmh 29.97 in1014.9 mb - 0.00 in0.0 mm 0.00 in0.0 mm
04:50 PM 43.9°F6.6°C 30.9°F-0.6°C 60% 3.5 mph S5.6 kmh S 3.5 mph5.6 kmh 29.97 in1014.9 mb - 0.00 in0.0 mm 0.00 in0.0 mm
05:00 PM 43.7°F6.5°C 31.5°F-0.3°C 62% Calm Calm 5.8 mph9.3 kmh 29.97 in1014.9 mb - 0.00 in0.0 mm 0.00 in0.0 mm
05:10 PM 43.5°F6.4°C 31.0°F-0.6°C 61% 2.3 mph S3.7 kmh S 3.5 mph5.6 kmh 29.97 in1014.9 mb - 0.00 in0.0 mm 0.00 in0.0 mm
05:20 PM 43.0°F6.1°C 31.3°F-0.4°C 63% Calm Calm 2.3 mph3.7 kmh 29.97 in1014.9 mb - 0.00 in0.0 mm 0.00 in0.0 mm
05:30 PM 43.0°F6.1°C 31.2°F-0.4°C 63% Calm Calm 3.5 mph5.6 kmh 29.97 in1014.9 mb - 0.00 in0.0 mm 0.00 in0.0 mm
05:40 PM 42.8°F6.0°C 31.5°F-0.3°C 64% Calm Calm -- 29.97 in1014.9 mb - 0.00 in0.0 mm 0.00 in0.0 mm
05:50 PM 42.6°F5.9°C 31.7°F-0.2°C 65% Calm Calm -- 29.97 in1014.9 mb - 0.00 in0.0 mm 0.00 in0.0 mm
06:00 PM 42.6°F5.9°C 31.7°F-0.2°C 65% Calm Calm -- 29.97 in1014.9 mb - 0.00 in0.0 mm 0.00 in0.0 mm
06:10 PM 42.4°F5.8°C 31.9°F-0.1°C 66% Calm Calm -- 29.97 in1014.9 mb - 0.00 in0.0 mm 0.00 in0.0 mm
06:20 PM 42.3°F5.7°C 31.7°F-0.2°C 66% Calm Calm -- 30.00 in1015.9 mb - 0.00 in0.0 mm 0.00 in0.0 mm
06:30 PM 42.3°F5.7°C 31.7°F-0.2°C 66% Calm Calm -- 30.00 in1015.9 mb - 0.00 in0.0 mm 0.00 in0.0 mm
06:40 PM 42.0°F5.6°C 31.9°F-0.1°C 67% Calm Calm -- 30.00 in1015.9 mb - 0.00 in0.0 mm 0.00 in0.0 mm
06:50 PM 41.2°F5.1°C 32.5°F0.3°C 71% Calm Calm -- 30.00 in1015.9 mb - 0.00 in0.0 mm 0.00 in0.0 mm
07:00 PM 40.5°F4.7°C 33.8°F1.0°C 77% 2.3 mph SW3.7 kmh SW 3.5 mph5.6 kmh 30.00 in1015.9 mb - 0.00 in0.0 mm 0.00 in0.0 mm
07:10 PM 39.9°F4.4°C 35.5°F1.9°C 84% 2.3 mph SW3.7 kmh SW 3.5 mph5.6 kmh 30.00 in1015.9 mb - 0.00 in0.0 mm 0.00 in0.0 mm
07:20 PM 39.7°F4.3°C 36.5°F2.5°C 88% Calm Calm -- 30.00 in1015.9 mb - 0.00 in0.0 mm 0.00 in0.0 mm
07:30 PM 39.9°F4.4°C 37.5°F3.1°C 91% Calm Calm -- 30.00 in1015.9 mb - 0.00 in0.0 mm 0.00 in0.0 mm
07:40 PM 39.7°F4.3°C 38.2°F3.4°C 94% Calm Calm -- 30.00 in1015.9 mb - 0.00 in0.0 mm 0.00 in0.0 mm
07:50 PM 39.4°F4.1°C 38.1°F3.4°C 95% Calm Calm -- 30.00 in1015.9 mb - 0.00 in0.0 mm 0.00 in0.0 mm
08:00 PM 39.4°F4.1°C 38.3°F3.5°C 96% Calm Calm -- 30.00 in1015.9 mb - 0.00 in0.0 mm 0.00 in0.0 mm
08:10 PM 39.4°F4.1°C 38.6°F3.7°C 97% Calm Calm -- 30.00 in1015.9 mb - 0.00 in0.0 mm 0.00 in0.0 mm
08:20 PM 39.2°F4.0°C 39.2°F4.0°C 100% Calm Calm -- 30.03 in1016.9 mb - 0.00 in0.0 mm 0.00 in0.0 mm
08:30 PM 39.0°F3.9°C 39.0°F3.9°C 100% Calm Calm -- 30.03 in1016.9 mb - 0.00 in0.0 mm 0.00 in0.0 mm
08:40 PM 39.0°F3.9°C 39.0°F3.9°C 100% Calm Calm -- 30.03 in1016.9 mb - 0.00 in0.0 mm 0.00 in0.0 mm
08:50 PM 38.8°F3.8°C 38.8°F3.8°C 100% Calm Calm -- 30.03 in1016.9 mb - 0.00 in0.0 mm 0.00 in0.0 mm
09:00 PM 38.8°F3.8°C 38.8°F3.8°C 100% Calm Calm -- 30.03 in1016.9 mb - 0.00 in0.0 mm 0.00 in0.0 mm
09:10 PM 38.8°F3.8°C 38.8°F3.8°C 100% Calm Calm -- 30.03 in1016.9 mb - 0.00 in0.0 mm 0.00 in0.0 mm
09:20 PM 39.0°F3.9°C 39.0°F3.9°C 100% Calm Calm -- 30.03 in1016.9 mb - 0.00 in0.0 mm 0.00 in0.0 mm
09:30 PM 39.0°F3.9°C 39.0°F3.9°C 100% Calm Calm -- 30.00 in1015.9 mb - 0.00 in0.0 mm 0.00 in0.0 mm
09:40 PM 39.0°F3.9°C 39.0°F3.9°C 100% Calm Calm -- 30.00 in1015.9 mb - 0.00 in0.0 mm 0.00 in0.0 mm
09:50 PM 39.2°F4.0°C 39.2°F4.0°C 100% Calm Calm -- 30.03 in1016.9 mb - 0.00 in0.0 mm 0.00 in0.0 mm
10:00 PM 39.2°F4.0°C 39.2°F4.0°C 100% Calm Calm -- 30.03 in1016.9 mb - 0.00 in0.0 mm 0.00 in0.0 mm
10:10 PM 39.0°F3.9°C 39.0°F3.9°C 100% Calm Calm -- 30.03 in1016.9 mb - 0.00 in0.0 mm 0.00 in0.0 mm
10:20 PM 39.0°F3.9°C 39.0°F3.9°C 100% Calm Calm -- 30.03 in1016.9 mb - 0.05 in1.3 mm 0.05 in1.3 mm
10:30 PM 38.8°F3.8°C 38.8°F3.8°C 100% Calm Calm -- 30.06 in1017.9 mb - 0.05 in1.3 mm 0.05 in1.3 mm
10:40 PM 38.7°F3.7°C 38.7°F3.7°C 100% Calm Calm -- 30.06 in1017.9 mb - 0.05 in1.3 mm 0.05 in1.3 mm
10:50 PM 38.7°F3.7°C 38.7°F3.7°C 100% Calm Calm -- 30.06 in1017.9 mb - 0.05 in1.3 mm 0.05 in1.3 mm
11:00 PM 38.7°F3.7°C 38.7°F3.7°C 100% Calm Calm -- 30.03 in1016.9 mb - 0.05 in1.3 mm 0.05 in1.3 mm
11:10 PM 38.7°F3.7°C 38.7°F3.7°C 100% Calm Calm -- 30.03 in1016.9 mb - 0.05 in1.3 mm 0.05 in1.3 mm
11:20 PM 38.7°F3.7°C 38.7°F3.7°C 100% Calm Calm -- 30.03 in1016.9 mb - 0.00 in0.0 mm 0.05 in1.3 mm
11:30 PM 38.5°F3.6°C 38.5°F3.6°C 100% Calm Calm -- 30.03 in1016.9 mb - 0.00 in0.0 mm 0.05 in1.3 mm
11:40 PM 38.7°F3.7°C 38.7°F3.7°C 100% Calm Calm 3.5 mph5.6 kmh 30.03 in1016.9 mb - 0.00 in0.0 mm 0.05 in1.3 mm
11:50 PM 38.7°F3.7°C 38.7°F3.7°C 100% Calm Calm -- 30.03 in1016.9 mb - 0.00 in0.0 mm 0.05 in1.3 mm